sensor_id;sensor_type;location;lat;lon;timestamp;temperature;humidity
67799;SHT30;54596;43.216;27.904;2023-08-12T00:01:32;20.60;84.08
67799;SHT30;54596;43.216;27.904;2023-08-12T00:03:57;20.55;84.31
67799;SHT30;54596;43.216;27.904;2023-08-12T00:06:23;20.54;84.41
67799;SHT30;54596;43.216;27.904;2023-08-12T00:08:48;20.54;84.21
67799;SHT30;54596;43.216;27.904;2023-08-12T00:11:14;20.48;84.21
67799;SHT30;54596;43.216;27.904;2023-08-12T00:13:39;20.48;84.09
67799;SHT30;54596;43.216;27.904;2023-08-12T00:16:05;20.48;83.98
67799;SHT30;54596;43.216;27.904;2023-08-12T00:18:30;20.45;83.86
67799;SHT30;54596;43.216;27.904;2023-08-12T00:21:05;20.40;83.57
67799;SHT30;54596;43.216;27.904;2023-08-12T00:23:31;20.41;83.56
67799;SHT30;54596;43.216;27.904;2023-08-12T00:25:58;20.36;83.61
67799;SHT30;54596;43.216;27.904;2023-08-12T00:28:24;20.25;83.67
67799;SHT30;54596;43.216;27.904;2023-08-12T00:30:49;20.20;83.61
67799;SHT30;54596;43.216;27.904;2023-08-12T00:33:15;20.22;83.48
67799;SHT30;54596;43.216;27.904;2023-08-12T00:35:40;20.16;83.49
67799;SHT30;54596;43.216;27.904;2023-08-12T00:38:06;20.16;83.36
67799;SHT30;54596;43.216;27.904;2023-08-12T00:40:31;20.17;83.23
67799;SHT30;54596;43.216;27.904;2023-08-12T00:42:56;20.19;83.23
67799;SHT30;54596;43.216;27.904;2023-08-12T00:45:22;20.19;83.13
67799;SHT30;54596;43.216;27.904;2023-08-12T00:47:47;20.20;83.19
67799;SHT30;54596;43.216;27.904;2023-08-12T00:50:14;20.13;84.20
67799;SHT30;54596;43.216;27.904;2023-08-12T00:52:40;20.17;84.30
67799;SHT30;54596;43.216;27.904;2023-08-12T00:55:06;20.19;84.27
67799;SHT30;54596;43.216;27.904;2023-08-12T00:57:32;20.22;84.38
67799;SHT30;54596;43.216;27.904;2023-08-12T00:59:58;20.23;84.27
67799;SHT30;54596;43.216;27.904;2023-08-12T01:02:24;20.23;84.18
67799;SHT30;54596;43.216;27.904;2023-08-12T01:04:50;20.25;84.10
67799;SHT30;54596;43.216;27.904;2023-08-12T01:07:15;20.27;83.98
67799;SHT30;54596;43.216;27.904;2023-08-12T01:09:41;20.19;84.03
67799;SHT30;54596;43.216;27.904;2023-08-12T01:12:32;20.13;84.08
67799;SHT30;54596;43.216;27.904;2023-08-12T01:15:12;20.10;84.03
67799;SHT30;54596;43.216;27.904;2023-08-12T01:17:41;20.16;84.05
67799;SHT30;54596;43.216;27.904;2023-08-12T01:20:08;20.19;83.89
67799;SHT30;54596;43.216;27.904;2023-08-12T01:22:36;20.20;83.28
67799;SHT30;54596;43.216;27.904;2023-08-12T01:25:05;20.25;82.97
67799;SHT30;54596;43.216;27.904;2023-08-12T01:27:30;20.27;82.61
67799;SHT30;54596;43.216;27.904;2023-08-12T01:29:56;20.30;82.39
67799;SHT30;54596;43.216;27.904;2023-08-12T01:35:30;20.30;81.55
67799;SHT30;54596;43.216;27.904;2023-08-12T01:37:57;20.36;81.12
67799;SHT30;54596;43.216;27.904;2023-08-12T01:40:24;20.34;81.11
67799;SHT30;54596;43.216;27.904;2023-08-12T01:42:50;20.33;80.98
67799;SHT30;54596;43.216;27.904;2023-08-12T01:45:15;20.32;80.66
67799;SHT30;54596;43.216;27.904;2023-08-12T01:47:43;20.34;80.16
67799;SHT30;54596;43.216;27.904;2023-08-12T01:50:09;20.34;80.08
67799;SHT30;54596;43.216;27.904;2023-08-12T01:52:35;20.34;79.47
67799;SHT30;54596;43.216;27.904;2023-08-12T01:55:00;20.30;79.26
67799;SHT30;54596;43.216;27.904;2023-08-12T01:57:26;20.27;78.66
67799;SHT30;54596;43.216;27.904;2023-08-12T01:59:51;20.29;78.42
67799;SHT30;54596;43.216;27.904;2023-08-12T02:02:17;20.29;78.26
67799;SHT30;54596;43.216;27.904;2023-08-12T02:04:42;20.29;78.31
67799;SHT30;54596;43.216;27.904;2023-08-12T02:07:09;20.32;78.23
67799;SHT30;54596;43.216;27.904;2023-08-12T02:09:34;20.36;78.02
67799;SHT30;54596;43.216;27.904;2023-08-12T02:12:00;20.37;77.94
67799;SHT30;54596;43.216;27.904;2023-08-12T02:14:25;20.39;77.90
67799;SHT30;54596;43.216;27.904;2023-08-12T02:16:51;20.36;77.83
67799;SHT30;54596;43.216;27.904;2023-08-12T02:19:16;20.36;78.01
67799;SHT30;54596;43.216;27.904;2023-08-12T02:21:42;20.37;78.17
67799;SHT30;54596;43.216;27.904;2023-08-12T02:24:08;20.37;78.18
67799;SHT30;54596;43.216;27.904;2023-08-12T02:26:34;20.40;77.99
67799;SHT30;54596;43.216;27.904;2023-08-12T02:28:59;20.39;78.17
67799;SHT30;54596;43.216;27.904;2023-08-12T02:31:25;20.44;77.67
67799;SHT30;54596;43.216;27.904;2023-08-12T02:33:50;20.45;77.75
67799;SHT30;54596;43.216;27.904;2023-08-12T02:36:16;20.44;77.83
67799;SHT30;54596;43.216;27.904;2023-08-12T02:38:41;20.43;77.52
67799;SHT30;54596;43.216;27.904;2023-08-12T02:41:07;20.47;77.71
67799;SHT30;54596;43.216;27.904;2023-08-12T02:43:33;20.44;77.57
67799;SHT30;54596;43.216;27.904;2023-08-12T02:45:58;20.47;77.70
67799;SHT30;54596;43.216;27.904;2023-08-12T02:48:23;20.44;77.74
67799;SHT30;54596;43.216;27.904;2023-08-12T02:50:49;20.43;77.81
67799;SHT30;54596;43.216;27.904;2023-08-12T02:53:15;20.47;77.83
67799;SHT30;54596;43.216;27.904;2023-08-12T02:55:41;20.44;77.85
67799;SHT30;54596;43.216;27.904;2023-08-12T02:58:06;20.45;77.90
67799;SHT30;54596;43.216;27.904;2023-08-12T03:00:32;20.43;77.96
67799;SHT30;54596;43.216;27.904;2023-08-12T03:02:57;20.44;77.98
67799;SHT30;54596;43.216;27.904;2023-08-12T03:05:23;20.43;78.00
67799;SHT30;54596;43.216;27.904;2023-08-12T03:07:49;20.44;78.14
67799;SHT30;54596;43.216;27.904;2023-08-12T03:10:14;20.43;78.01
67799;SHT30;54596;43.216;27.904;2023-08-12T03:12:40;20.45;77.99
67799;SHT30;54596;43.216;27.904;2023-08-12T03:15:07;20.45;77.97
67799;SHT30;54596;43.216;27.904;2023-08-12T03:17:32;20.47;77.73
67799;SHT30;54596;43.216;27.904;2023-08-12T03:19:58;20.50;77.69
67799;SHT30;54596;43.216;27.904;2023-08-12T03:22:29;20.55;77.67
67799;SHT30;54596;43.216;27.904;2023-08-12T03:24:55;20.55;77.54
67799;SHT30;54596;43.216;27.904;2023-08-12T03:27:20;20.58;77.54
67799;SHT30;54596;43.216;27.904;2023-08-12T03:29:46;20.61;77.62
67799;SHT30;54596;43.216;27.904;2023-08-12T03:32:11;20.60;77.49
67799;SHT30;54596;43.216;27.904;2023-08-12T03:34:37;20.61;77.36
67799;SHT30;54596;43.216;27.904;2023-08-12T03:37:03;20.60;77.40
67799;SHT30;54596;43.216;27.904;2023-08-12T03:39:29;20.58;77.45
67799;SHT30;54596;43.216;27.904;2023-08-12T03:41:54;20.55;77.55
67799;SHT30;54596;43.216;27.904;2023-08-12T03:44:20;20.63;77.52
67799;SHT30;54596;43.216;27.904;2023-08-12T03:46:45;20.65;77.54
67799;SHT30;54596;43.216;27.904;2023-08-12T03:49:10;20.67;77.28
67799;SHT30;54596;43.216;27.904;2023-08-12T03:51:36;20.68;77.22
67799;SHT30;54596;43.216;27.904;2023-08-12T03:54:01;20.71;77.31
67799;SHT30;54596;43.216;27.904;2023-08-12T03:56:27;20.77;77.32
67799;SHT30;54596;43.216;27.904;2023-08-12T03:58:52;20.81;77.19
67799;SHT30;54596;43.216;27.904;2023-08-12T04:01:18;20.79;77.24
67799;SHT30;54596;43.216;27.904;2023-08-12T04:03:43;20.81;77.31
67799;SHT30;54596;43.216;27.904;2023-08-12T04:06:09;20.88;77.30
67799;SHT30;54596;43.216;27.904;2023-08-12T04:08:34;20.88;77.36
67799;SHT30;54596;43.216;27.904;2023-08-12T04:11:00;20.92;77.24
67799;SHT30;54596;43.216;27.904;2023-08-12T04:13:26;20.91;77.21
67799;SHT30;54596;43.216;27.904;2023-08-12T04:15:51;20.96;77.14
67799;SHT30;54596;43.216;27.904;2023-08-12T04:18:18;21.00;77.06
67799;SHT30;54596;43.216;27.904;2023-08-12T04:20:45;21.06;77.04
67799;SHT30;54596;43.216;27.904;2023-08-12T04:23:12;21.10;76.81
67799;SHT30;54596;43.216;27.904;2023-08-12T04:25:38;21.16;76.62
67799;SHT30;54596;43.216;27.904;2023-08-12T04:28:03;21.16;76.60
67799;SHT30;54596;43.216;27.904;2023-08-12T04:30:29;21.23;76.66
67799;SHT30;54596;43.216;27.904;2023-08-12T04:32:55;21.26;76.57
67799;SHT30;54596;43.216;27.904;2023-08-12T04:35:20;21.30;76.31
67799;SHT30;54596;43.216;27.904;2023-08-12T04:37:46;21.31;76.24
67799;SHT30;54596;43.216;27.904;2023-08-12T04:40:11;21.41;75.95
67799;SHT30;54596;43.216;27.904;2023-08-12T04:42:37;21.51;75.82
67799;SHT30;54596;43.216;27.904;2023-08-12T04:45:03;21.62;75.63
67799;SHT30;54596;43.216;27.904;2023-08-12T04:47:28;21.81;75.32
67799;SHT30;54596;43.216;27.904;2023-08-12T04:49:54;21.99;74.80
67799;SHT30;54596;43.216;27.904;2023-08-12T04:52:20;21.98;74.80
67799;SHT30;54596;43.216;27.904;2023-08-12T04:54:46;22.08;74.54
67799;SHT30;54596;43.216;27.904;2023-08-12T04:57:11;22.13;74.27
67799;SHT30;54596;43.216;27.904;2023-08-12T04:59:37;22.17;73.86
67799;SHT30;54596;43.216;27.904;2023-08-12T05:02:02;22.30;73.48
67799;SHT30;54596;43.216;27.904;2023-08-12T05:04:28;22.41;73.18
67799;SHT30;54596;43.216;27.904;2023-08-12T05:06:53;22.61;72.85
67799;SHT30;54596;43.216;27.904;2023-08-12T05:09:19;22.68;71.97
67799;SHT30;54596;43.216;27.904;2023-08-12T05:11:44;22.81;71.70
67799;SHT30;54596;43.216;27.904;2023-08-12T05:14:10;22.88;71.50
67799;SHT30;54596;43.216;27.904;2023-08-12T05:16:35;23.09;71.23
67799;SHT30;54596;43.216;27.904;2023-08-12T05:19:01;23.33;69.86
67799;SHT30;54596;43.216;27.904;2023-08-12T05:21:26;23.47;70.02
67799;SHT30;54596;43.216;27.904;2023-08-12T05:23:52;23.61;69.72
67799;SHT30;54596;43.216;27.904;2023-08-12T05:26:17;23.86;68.92
67799;SHT30;54596;43.216;27.904;2023-08-12T05:28:43;24.12;68.01
67799;SHT30;54596;43.216;27.904;2023-08-12T05:31:08;24.57;66.67
67799;SHT30;54596;43.216;27.904;2023-08-12T05:33:34;26.55;62.61
67799;SHT30;54596;43.216;27.904;2023-08-12T05:35:59;29.09;56.90
67799;SHT30;54596;43.216;27.904;2023-08-12T05:38:25;30.59;53.43
67799;SHT30;54596;43.216;27.904;2023-08-12T05:40:50;30.76;52.05
67799;SHT30;54596;43.216;27.904;2023-08-12T05:43:16;31.69;51.68
67799;SHT30;54596;43.216;27.904;2023-08-12T05:45:41;31.81;51.17
67799;SHT30;54596;43.216;27.904;2023-08-12T05:48:07;32.96;49.12
67799;SHT30;54596;43.216;27.904;2023-08-12T05:50:33;33.21;48.57
67799;SHT30;54596;43.216;27.904;2023-08-12T05:52:58;33.72;47.67
67799;SHT30;54596;43.216;27.904;2023-08-12T05:55:24;35.16;45.56
67799;SHT30;54596;43.216;27.904;2023-08-12T05:57:49;35.47;45.19
67799;SHT30;54596;43.216;27.904;2023-08-12T06:00:15;35.30;44.80
67799;SHT30;54596;43.216;27.904;2023-08-12T06:02:40;35.04;45.29
67799;SHT30;54596;43.216;27.904;2023-08-12T06:05:08;34.62;45.28
67799;SHT30;54596;43.216;27.904;2023-08-12T06:07:33;35.71;44.80
67799;SHT30;54596;43.216;27.904;2023-08-12T06:09:59;36.13;43.96
67799;SHT30;54596;43.216;27.904;2023-08-12T06:12:25;34.68;45.63
67799;SHT30;54596;43.216;27.904;2023-08-12T06:14:50;35.82;44.71
67799;SHT30;54596;43.216;27.904;2023-08-12T06:17:16;36.77;43.52
67799;SHT30;54596;43.216;27.904;2023-08-12T06:19:41;37.25;42.84
67799;SHT30;54596;43.216;27.904;2023-08-12T06:22:06;37.68;41.87
67799;SHT30;54596;43.216;27.904;2023-08-12T06:24:32;36.24;43.63
67799;SHT30;54596;43.216;27.904;2023-08-12T06:26:58;36.72;42.83
67799;SHT30;54596;43.216;27.904;2023-08-12T06:29:23;37.37;42.13
67799;SHT30;54596;43.216;27.904;2023-08-12T06:31:49;37.70;41.90
67799;SHT30;54596;43.216;27.904;2023-08-12T06:34:14;37.80;41.67
67799;SHT30;54596;43.216;27.904;2023-08-12T06:36:39;36.98;42.86
67799;SHT30;54596;43.216;27.904;2023-08-12T06:39:05;37.64;41.76
67799;SHT30;54596;43.216;27.904;2023-08-12T06:41:30;37.95;41.11
67799;SHT30;54596;43.216;27.904;2023-08-12T06:43:56;38.11;41.10
67799;SHT30;54596;43.216;27.904;2023-08-12T06:46:21;37.50;42.20
67799;SHT30;54596;43.216;27.904;2023-08-12T06:48:47;37.51;41.66
67799;SHT30;54596;43.216;27.904;2023-08-12T06:51:12;37.64;41.67
67799;SHT30;54596;43.216;27.904;2023-08-12T06:53:39;37.95;41.93
67799;SHT30;54596;43.216;27.904;2023-08-12T06:56:05;37.77;42.41
67799;SHT30;54596;43.216;27.904;2023-08-12T06:58:31;37.77;42.05
67799;SHT30;54596;43.216;27.904;2023-08-12T07:00:57;37.71;41.75
67799;SHT30;54596;43.216;27.904;2023-08-12T07:03:24;38.16;40.85
67799;SHT30;54596;43.216;27.904;2023-08-12T07:05:51;38.19;40.34
67799;SHT30;54596;43.216;27.904;2023-08-12T07:08:17;37.63;40.27
67799;SHT30;54596;43.216;27.904;2023-08-12T07:10:43;38.92;39.09
67799;SHT30;54596;43.216;27.904;2023-08-12T07:13:08;38.96;38.91
67799;SHT30;54596;43.216;27.904;2023-08-12T07:15:33;39.54;38.21
67799;SHT30;54596;43.216;27.904;2023-08-12T07:17:59;40.01;37.99
67799;SHT30;54596;43.216;27.904;2023-08-12T07:20:25;40.39;37.56
67799;SHT30;54596;43.216;27.904;2023-08-12T07:22:51;40.83;37.10
67799;SHT30;54596;43.216;27.904;2023-08-12T07:25:16;40.57;37.35
67799;SHT30;54596;43.216;27.904;2023-08-12T07:27:42;39.01;38.49
67799;SHT30;54596;43.216;27.904;2023-08-12T07:30:08;39.56;37.91
67799;SHT30;54596;43.216;27.904;2023-08-12T07:32:34;40.16;37.77
67799;SHT30;54596;43.216;27.904;2023-08-12T07:34:59;40.74;36.88
67799;SHT30;54596;43.216;27.904;2023-08-12T07:37:25;38.34;39.58
67799;SHT30;54596;43.216;27.904;2023-08-12T07:39:51;35.55;44.10
67799;SHT30;54596;43.216;27.904;2023-08-12T07:42:17;36.41;42.12
67799;SHT30;54596;43.216;27.904;2023-08-12T07:44:43;38.20;39.72
67799;SHT30;54596;43.216;27.904;2023-08-12T07:47:08;38.47;40.09
67799;SHT30;54596;43.216;27.904;2023-08-12T07:49:34;39.01;39.58
67799;SHT30;54596;43.216;27.904;2023-08-12T07:52:00;38.49;39.51
67799;SHT30;54596;43.216;27.904;2023-08-12T07:54:26;38.58;39.23
67799;SHT30;54596;43.216;27.904;2023-08-12T07:56:52;39.33;38.49
67799;SHT30;54596;43.216;27.904;2023-08-12T07:59:19;37.95;39.91
67799;SHT30;54596;43.216;27.904;2023-08-12T08:01:44;38.98;39.25
67799;SHT30;54596;43.216;27.904;2023-08-12T08:04:10;38.46;40.17
67799;SHT30;54596;43.216;27.904;2023-08-12T08:06:36;38.78;40.25
67799;SHT30;54596;43.216;27.904;2023-08-12T08:09:02;37.88;40.73
67799;SHT30;54596;43.216;27.904;2023-08-12T08:11:29;37.09;42.41
67799;SHT30;54596;43.216;27.904;2023-08-12T08:13:55;36.00;43.74
67799;SHT30;54596;43.216;27.904;2023-08-12T08:16:20;36.50;42.92
67799;SHT30;54596;43.216;27.904;2023-08-12T08:18:46;35.75;44.20
67799;SHT30;54596;43.216;27.904;2023-08-12T08:21:11;37.00;42.46
67799;SHT30;54596;43.216;27.904;2023-08-12T08:23:37;35.44;44.51
67799;SHT30;54596;43.216;27.904;2023-08-12T08:26:02;34.44;46.09
67799;SHT30;54596;43.216;27.904;2023-08-12T08:28:28;33.73;47.37
67799;SHT30;54596;43.216;27.904;2023-08-12T08:30:53;32.52;49.32
67799;SHT30;54596;43.216;27.904;2023-08-12T08:33:19;31.90;50.99
67799;SHT30;54596;43.216;27.904;2023-08-12T08:35:44;31.00;52.02
67799;SHT30;54596;43.216;27.904;2023-08-12T08:38:10;30.47;53.56
67799;SHT30;54596;43.216;27.904;2023-08-12T08:40:36;29.92;54.58
67799;SHT30;54596;43.216;27.904;2023-08-12T08:43:02;30.35;53.38
67799;SHT30;54596;43.216;27.904;2023-08-12T08:45:32;29.93;53.78
67799;SHT30;54596;43.216;27.904;2023-08-12T08:47:59;29.16;53.92
67799;SHT30;54596;43.216;27.904;2023-08-12T08:50:26;29.65;53.96
67799;SHT30;54596;43.216;27.904;2023-08-12T08:52:53;29.24;54.66
67799;SHT30;54596;43.216;27.904;2023-08-12T08:55:20;29.35;54.06
67799;SHT30;54596;43.216;27.904;2023-08-12T08:57:46;29.09;54.72
67799;SHT30;54596;43.216;27.904;2023-08-12T09:00:12;29.51;54.35
67799;SHT30;54596;43.216;27.904;2023-08-12T09:02:40;29.57;52.94
67799;SHT30;54596;43.216;27.904;2023-08-12T09:05:06;29.31;53.87
67799;SHT30;54596;43.216;27.904;2023-08-12T09:07:32;28.82;55.70
67799;SHT30;54596;43.216;27.904;2023-08-12T09:10:00;28.61;56.14
67799;SHT30;54596;43.216;27.904;2023-08-12T09:12:26;28.36;56.34
67799;SHT30;54596;43.216;27.904;2023-08-12T09:14:52;28.10;58.42
67799;SHT30;54596;43.216;27.904;2023-08-12T09:17:17;28.10;58.74
67799;SHT30;54596;43.216;27.904;2023-08-12T09:19:43;27.88;61.44
67799;SHT30;54596;43.216;27.904;2023-08-12T09:22:09;27.82;61.50
67799;SHT30;54596;43.216;27.904;2023-08-12T09:24:35;27.75;62.44
67799;SHT30;54596;43.216;27.904;2023-08-12T09:27:01;27.77;62.11
67799;SHT30;54596;43.216;27.904;2023-08-12T09:29:30;27.72;61.81
67799;SHT30;54596;43.216;27.904;2023-08-12T09:32:13;27.48;62.56
67799;SHT30;54596;43.216;27.904;2023-08-12T09:34:55;27.50;62.56
67799;SHT30;54596;43.216;27.904;2023-08-12T09:37:22;27.69;62.17
67799;SHT30;54596;43.216;27.904;2023-08-12T09:39:49;27.81;62.06
67799;SHT30;54596;43.216;27.904;2023-08-12T09:42:15;27.75;58.72
67799;SHT30;54596;43.216;27.904;2023-08-12T09:44:42;27.73;59.94
67799;SHT30;54596;43.216;27.904;2023-08-12T09:47:07;27.48;60.01
67799;SHT30;54596;43.216;27.904;2023-08-12T09:49:34;27.23;61.28
67799;SHT30;54596;43.216;27.904;2023-08-12T09:52:00;27.40;62.07
67799;SHT30;54596;43.216;27.904;2023-08-12T09:54:27;26.79;63.92
67799;SHT30;54596;43.216;27.904;2023-08-12T09:56:56;26.75;65.17
67799;SHT30;54596;43.216;27.904;2023-08-12T09:59:24;26.69;66.10
67799;SHT30;54596;43.216;27.904;2023-08-12T10:01:52;26.78;67.50
67799;SHT30;54596;43.216;27.904;2023-08-12T10:04:18;26.49;70.54
67799;SHT30;54596;43.216;27.904;2023-08-12T10:06:47;26.40;71.53
67799;SHT30;54596;43.216;27.904;2023-08-12T10:09:15;26.00;74.17
67799;SHT30;54596;43.216;27.904;2023-08-12T10:11:42;26.45;73.60
67799;SHT30;54596;43.216;27.904;2023-08-12T10:14:10;26.72;72.03
67799;SHT30;54596;43.216;27.904;2023-08-12T10:16:36;26.86;69.29
67799;SHT30;54596;43.216;27.904;2023-08-12T10:19:03;26.74;72.31
67799;SHT30;54596;43.216;27.904;2023-08-12T10:21:29;26.54;73.31
67799;SHT30;54596;43.216;27.904;2023-08-12T10:24:00;26.81;72.42
67799;SHT30;54596;43.216;27.904;2023-08-12T10:26:26;26.91;71.46
67799;SHT30;54596;43.216;27.904;2023-08-12T10:28:51;26.95;71.52
67799;SHT30;54596;43.216;27.904;2023-08-12T10:31:18;26.95;71.46
67799;SHT30;54596;43.216;27.904;2023-08-12T10:33:44;26.79;70.47
67799;SHT30;54596;43.216;27.904;2023-08-12T10:36:15;26.79;69.35
67799;SHT30;54596;43.216;27.904;2023-08-12T10:38:40;27.04;68.80
67799;SHT30;54596;43.216;27.904;2023-08-12T10:41:22;26.96;68.32
67799;SHT30;54596;43.216;27.904;2023-08-12T10:46:31;26.71;66.35
67799;SHT30;54596;43.216;27.904;2023-08-12T10:48:58;27.11;66.95
67799;SHT30;54596;43.216;27.904;2023-08-12T10:51:52;27.09;67.05
67799;SHT30;54596;43.216;27.904;2023-08-12T10:54:23;27.20;68.64
67799;SHT30;54596;43.216;27.904;2023-08-12T11:02:29;26.78;68.93
67799;SHT30;54596;43.216;27.904;2023-08-12T11:05:07;26.85;68.37
67799;SHT30;54596;43.216;27.904;2023-08-12T11:10:15;26.59;69.16
67799;SHT30;54596;43.216;27.904;2023-08-12T11:15:35;26.69;67.15
67799;SHT30;54596;43.216;27.904;2023-08-12T11:18:06;26.93;66.87
67799;SHT30;54596;43.216;27.904;2023-08-12T11:20:32;27.24;62.98
67799;SHT30;54596;43.216;27.904;2023-08-12T11:22:58;27.07;61.67
67799;SHT30;54596;43.216;27.904;2023-08-12T11:25:24;27.17;60.57
67799;SHT30;54596;43.216;27.904;2023-08-12T11:27:50;27.30;60.93
67799;SHT30;54596;43.216;27.904;2023-08-12T11:30:17;27.11;61.70
67799;SHT30;54596;43.216;27.904;2023-08-12T11:32:44;27.00;61.09
67799;SHT30;54596;43.216;27.904;2023-08-12T11:35:11;26.92;61.63
67799;SHT30;54596;43.216;27.904;2023-08-12T11:37:38;26.95;61.66
67799;SHT30;54596;43.216;27.904;2023-08-12T11:40:05;27.00;64.87
67799;SHT30;54596;43.216;27.904;2023-08-12T11:42:31;26.54;66.33
67799;SHT30;54596;43.216;27.904;2023-08-12T11:44:56;26.34;68.16
67799;SHT30;54596;43.216;27.904;2023-08-12T11:47:22;26.43;70.70
67799;SHT30;54596;43.216;27.904;2023-08-12T11:49:47;26.41;69.39
67799;SHT30;54596;43.216;27.904;2023-08-12T11:52:14;26.65;64.78
67799;SHT30;54596;43.216;27.904;2023-08-12T11:54:39;26.76;67.72
67799;SHT30;54596;43.216;27.904;2023-08-12T11:57:05;26.76;65.55
67799;SHT30;54596;43.216;27.904;2023-08-12T11:59:31;26.67;59.40
67799;SHT30;54596;43.216;27.904;2023-08-12T12:01:57;26.61;62.20
67799;SHT30;54596;43.216;27.904;2023-08-12T12:04:22;26.65;65.53
67799;SHT30;54596;43.216;27.904;2023-08-12T12:06:48;26.68;64.36
67799;SHT30;54596;43.216;27.904;2023-08-12T12:09:14;26.61;61.63
67799;SHT30;54596;43.216;27.904;2023-08-12T12:11:41;26.76;63.77
67799;SHT30;54596;43.216;27.904;2023-08-12T12:14:08;26.85;64.88
67799;SHT30;54596;43.216;27.904;2023-08-12T12:16:42;26.62;64.44
67799;SHT30;54596;43.216;27.904;2023-08-12T12:19:16;26.44;66.52
67799;SHT30;54596;43.216;27.904;2023-08-12T12:21:44;26.55;67.25
67799;SHT30;54596;43.216;27.904;2023-08-12T12:24:10;26.24;66.90
67799;SHT30;54596;43.216;27.904;2023-08-12T12:26:36;26.17;68.68
67799;SHT30;54596;43.216;27.904;2023-08-12T12:29:05;25.95;70.01
67799;SHT30;54596;43.216;27.904;2023-08-12T12:31:34;26.14;71.48
67799;SHT30;54596;43.216;27.904;2023-08-12T12:34:01;26.03;70.57
67799;SHT30;54596;43.216;27.904;2023-08-12T12:36:28;25.82;69.90
67799;SHT30;54596;43.216;27.904;2023-08-12T12:38:53;25.95;70.08
67799;SHT30;54596;43.216;27.904;2023-08-12T12:41:19;25.97;69.21
67799;SHT30;54596;43.216;27.904;2023-08-12T12:43:44;26.03;69.35
67799;SHT30;54596;43.216;27.904;2023-08-12T12:46:10;26.14;69.12
67799;SHT30;54596;43.216;27.904;2023-08-12T12:48:35;25.93;68.19
67799;SHT30;54596;43.216;27.904;2023-08-12T12:51:01;26.03;69.33
67799;SHT30;54596;43.216;27.904;2023-08-12T12:53:26;26.13;69.72
67799;SHT30;54596;43.216;27.904;2023-08-12T12:55:52;26.17;68.63
67799;SHT30;54596;43.216;27.904;2023-08-12T12:58:17;26.04;68.71
67799;SHT30;54596;43.216;27.904;2023-08-12T13:00:43;26.10;69.56
67799;SHT30;54596;43.216;27.904;2023-08-12T13:03:08;25.96;70.61
67799;SHT30;54596;43.216;27.904;2023-08-12T13:05:34;25.95;70.47
67799;SHT30;54596;43.216;27.904;2023-08-12T13:07:59;25.95;71.55
67799;SHT30;54596;43.216;27.904;2023-08-12T13:10:25;26.10;71.75
67799;SHT30;54596;43.216;27.904;2023-08-12T13:12:50;26.06;71.70
67799;SHT30;54596;43.216;27.904;2023-08-12T13:15:16;26.02;71.13
67799;SHT30;54596;43.216;27.904;2023-08-12T13:17:42;25.85;71.79
67799;SHT30;54596;43.216;27.904;2023-08-12T13:20:08;25.75;72.87
67799;SHT30;54596;43.216;27.904;2023-08-12T13:22:34;25.72;73.11
67799;SHT30;54596;43.216;27.904;2023-08-12T13:25:01;25.68;73.31
67799;SHT30;54596;43.216;27.904;2023-08-12T13:27:27;25.69;72.15
67799;SHT30;54596;43.216;27.904;2023-08-12T13:29:52;25.64;70.95
67799;SHT30;54596;43.216;27.904;2023-08-12T13:32:18;25.61;73.11
67799;SHT30;54596;43.216;27.904;2023-08-12T13:34:43;25.60;73.37
67799;SHT30;54596;43.216;27.904;2023-08-12T13:37:11;25.58;72.07
67799;SHT30;54596;43.216;27.904;2023-08-12T13:39:37;25.71;72.38
67799;SHT30;54596;43.216;27.904;2023-08-12T13:42:02;25.76;71.95
67799;SHT30;54596;43.216;27.904;2023-08-12T13:44:28;25.64;69.82
67799;SHT30;54596;43.216;27.904;2023-08-12T13:46:53;25.76;70.59
67799;SHT30;54596;43.216;27.904;2023-08-12T13:49:19;25.71;71.60
67799;SHT30;54596;43.216;27.904;2023-08-12T13:51:44;25.65;72.06
67799;SHT30;54596;43.216;27.904;2023-08-12T13:54:10;25.67;71.23
67799;SHT30;54596;43.216;27.904;2023-08-12T13:56:35;25.60;70.77
67799;SHT30;54596;43.216;27.904;2023-08-12T13:59:01;25.64;70.24
67799;SHT30;54596;43.216;27.904;2023-08-12T14:01:26;25.68;69.22
67799;SHT30;54596;43.216;27.904;2023-08-12T14:03:51;25.72;70.58
67799;SHT30;54596;43.216;27.904;2023-08-12T14:06:17;25.78;71.09
67799;SHT30;54596;43.216;27.904;2023-08-12T14:08:42;25.62;70.14
67799;SHT30;54596;43.216;27.904;2023-08-12T14:11:08;25.67;69.86
67799;SHT30;54596;43.216;27.904;2023-08-12T14:13:33;25.69;68.62
67799;SHT30;54596;43.216;27.904;2023-08-12T14:15:59;25.78;69.55
67799;SHT30;54596;43.216;27.904;2023-08-12T14:18:24;25.76;69.70
67799;SHT30;54596;43.216;27.904;2023-08-12T14:20:50;25.75;70.25
67799;SHT30;54596;43.216;27.904;2023-08-12T14:23:15;25.74;68.85
67799;SHT30;54596;43.216;27.904;2023-08-12T14:25:40;25.86;70.24
67799;SHT30;54596;43.216;27.904;2023-08-12T14:28:06;25.68;70.48
67799;SHT30;54596;43.216;27.904;2023-08-12T14:30:31;25.64;70.62
67799;SHT30;54596;43.216;27.904;2023-08-12T14:32:57;25.69;69.99
67799;SHT30;54596;43.216;27.904;2023-08-12T14:35:24;25.64;69.78
67799;SHT30;54596;43.216;27.904;2023-08-12T14:37:50;25.55;70.10
67799;SHT30;54596;43.216;27.904;2023-08-12T14:40:16;25.54;69.80
67799;SHT30;54596;43.216;27.904;2023-08-12T14:42:41;25.54;70.10
67799;SHT30;54596;43.216;27.904;2023-08-12T14:45:07;25.47;69.88
67799;SHT30;54596;43.216;27.904;2023-08-12T14:47:33;25.50;70.95
67799;SHT30;54596;43.216;27.904;2023-08-12T14:49:58;25.50;70.21
67799;SHT30;54596;43.216;27.904;2023-08-12T14:52:23;25.57;70.39
67799;SHT30;54596;43.216;27.904;2023-08-12T14:54:49;25.54;70.32
67799;SHT30;54596;43.216;27.904;2023-08-12T14:57:15;25.60;71.17
67799;SHT30;54596;43.216;27.904;2023-08-12T14:59:40;25.64;71.53
67799;SHT30;54596;43.216;27.904;2023-08-12T15:02:06;25.54;70.79
67799;SHT30;54596;43.216;27.904;2023-08-12T15:04:33;25.50;70.89
67799;SHT30;54596;43.216;27.904;2023-08-12T15:06:58;25.31;72.90
67799;SHT30;54596;43.216;27.904;2023-08-12T15:09:24;25.23;72.46
67799;SHT30;54596;43.216;27.904;2023-08-12T15:11:50;25.31;73.07
67799;SHT30;54596;43.216;27.904;2023-08-12T15:14:15;25.34;73.14
67799;SHT30;54596;43.216;27.904;2023-08-12T15:16:41;25.33;74.04
67799;SHT30;54596;43.216;27.904;2023-08-12T15:19:06;25.23;73.79
67799;SHT30;54596;43.216;27.904;2023-08-12T15:21:32;25.47;73.18
67799;SHT30;54596;43.216;27.904;2023-08-12T15:23:57;25.57;73.20
67799;SHT30;54596;43.216;27.904;2023-08-12T15:26:23;25.50;73.07